Austerlitz, New York
Current Conditions -  °F | °C
As of 4:54 PM on Sunday 23 Nov 2014 (Local Time) from KPSF Reporting Station
Overcast Overcast  
Wind Chill: 47°   Ceiling: 5000
Heat Index: 47°   Visibility: 10mi
Dew Point: 35°   Wind: 3mph
Humidity: 63%   Direction: 110°ESE
Pressure: 30.07"   Gusts: NA
Location:  42.31°N, 73.47°W
Report Text: KPSF 232154Z AUTO 11003KT 10SM BKN050 OVC060 08/02 A3007 RMK AO2 SLP183 T00830017
Loading
Personal Weather Stations






























Interactive Weather Map New forecast layout! Learn more

10-Day Weather Forecast

Advertisements
Track Severe Weather on mobile